East Mansfield, Massachusetts
Current Conditions -  °F | °C
As of 7:53 PM on Tuesday 27 Jan 2015 (Local Time) from KOWD Reporting Station
Light Snow Light Snow  
Wind Chill:   Ceiling: 3900
Heat Index: 15°   Visibility: 4mi
Dew Point:   Wind: 12mph
Humidity: 74%   Direction: 330°NNW
Pressure: 29.6"   Gusts: 25mph
Location:  42.02°N, 71.18°W
Report Text: KOWD 280053Z AUTO 33010G22KT 4SM -SN OVC039 M09/M13 A2960 RMK AO2 SNB2355 SLP023 P0002 T10941133 $
Loading
Personal Weather Stations






























Interactive Weather Map New forecast layout! Learn more

10-Day Weather Forecast

Advertisements
Track Severe Weather on mobile